Time;durP1;ratioP1;P1;durP2;ratioP2;P2;SDS_P1;SDS_P2;PMS_P1;PMS_P2;Temp;Humidity;BMP_temperature;BMP_pressure;BME280_temperature;BME280_humidity;BME280_pressure;Samples;Min_cycle;Max_cycle;Signal;HPM_P1;HPM_P2
2023/06/27 00:00:10;;;;;;;8.83;3.43;;;14.70;99.90;;;;;;5020595;28;20233;-83
2023/06/27 00:02:39;;;;;;;12.43;3.50;;;14.70;99.90;;;;;;5020260;28;20318;-82
2023/06/27 00:05:07;;;;;;;12.90;2.97;;;14.70;99.90;;;;;;5022920;28;20712;-83
2023/06/27 00:07:34;;;;;;;13.83;3.60;;;14.60;99.90;;;;;;5024758;28;20231;-82
2023/06/27 00:10:02;;;;;;;9.30;3.00;;;14.60;99.90;;;;;;5024179;28;20222;-82
2023/06/27 00:12:30;;;;;;;8.03;2.77;;;14.60;99.90;;;;;;5017820;28;20595;-82
2023/06/27 00:14:57;;;;;;;12.23;2.97;;;14.60;99.90;;;;;;5017674;28;20222;-83
2023/06/27 00:17:24;;;;;;;10.63;2.70;;;14.50;99.90;;;;;;5023129;28;20233;-82
2023/06/27 00:19:57;;;;;;;11.70;3.40;;;14.50;99.90;;;;;;5024787;28;20301;-82
2023/06/27 00:22:26;;;;;;;9.57;3.03;;;14.50;99.90;;;;;;5018776;28;20378;-82
2023/06/27 00:24:53;;;;;;;16.83;3.47;;;14.50;99.90;;;;;;5021760;28;20228;-83
2023/06/27 00:27:20;;;;;;;9.43;3.30;;;14.50;99.90;;;;;;5021665;28;20223;-82
2023/06/27 00:29:47;;;;;;;10.87;3.03;;;14.40;99.90;;;;;;5016829;28;20229;-83
2023/06/27 00:32:14;;;;;;;8.53;2.70;;;14.40;99.90;;;;;;5022499;28;21055;-83
2023/06/27 00:34:42;;;;;;;11.30;3.13;;;14.40;99.90;;;;;;5019252;28;20235;-83
2023/06/27 00:37:10;;;;;;;7.70;2.70;;;14.40;99.90;;;;;;5018279;28;20307;-83
2023/06/27 00:39:37;;;;;;;8.43;3.17;;;14.40;99.90;;;;;;5018989;28;20248;-83
2023/06/27 00:42:05;;;;;;;9.17;2.80;;;14.40;99.90;;;;;;5017541;28;20956;-84
2023/06/27 00:44:32;;;;;;;10.10;3.07;;;14.40;99.90;;;;;;5017215;28;20705;-83
2023/06/27 00:46:59;;;;;;;11.70;3.17;;;14.40;99.90;;;;;;5021861;28;20284;-84
2023/06/27 00:49:26;;;;;;;10.57;3.13;;;14.30;99.90;;;;;;5012597;28;20892;-83
2023/06/27 00:51:55;;;;;;;7.93;2.60;;;14.30;99.90;;;;;;5012829;28;20793;-83
2023/06/27 00:54:24;;;;;;;9.20;2.67;;;14.30;99.90;;;;;;5017769;28;20224;-83
2023/06/27 00:56:53;;;;;;;8.07;2.70;;;14.30;99.90;;;;;;5018412;28;20333;-83
2023/06/27 00:59:21;;;;;;;9.90;2.57;;;14.30;99.90;;;;;;5015225;28;20235;-83
2023/06/27 01:01:48;;;;;;;13.67;3.03;;;14.20;99.90;;;;;;5018550;28;20751;-82
2023/06/27 01:04:15;;;;;;;9.40;2.93;;;14.20;99.90;;;;;;5021668;28;20234;-82
2023/06/27 01:06:52;;;;;;;10.73;3.23;;;14.20;99.90;;;;;;5015988;28;20228;-82
2023/06/27 01:09:29;;;;;;;7.37;2.77;;;14.20;99.90;;;;;;5018815;28;20227;-82
2023/06/27 01:12:06;;;;;;;7.97;3.10;;;14.10;99.90;;;;;;5019290;28;20234;-82
2023/06/27 01:14:35;;;;;;;6.33;2.80;;;14.10;99.90;;;;;;5018265;28;20290;-82
2023/06/27 01:17:03;;;;;;;7.90;2.67;;;14.10;99.90;;;;;;5015277;28;20328;-82
2023/06/27 01:19:32;;;;;;;9.83;2.83;;;14.10;99.90;;;;;;5022085;28;20776;-82
2023/06/27 01:22:03;;;;;;;9.23;2.83;;;14.00;99.90;;;;;;5021564;28;20217;-83
2023/06/27 01:24:32;;;;;;;10.83;2.90;;;14.00;99.90;;;;;;5019671;28;20246;-82
2023/06/27 01:27:00;;;;;;;7.43;2.27;;;14.00;99.90;;;;;;5011759;28;20319;-82
2023/06/27 01:29:29;;;;;;;9.13;2.70;;;14.00;99.90;;;;;;5023480;28;20281;-82
2023/06/27 01:32:04;;;;;;;7.10;3.17;;;13.90;99.90;;;;;;5023303;28;20236;-83
2023/06/27 01:34:34;;;;;;;10.20;2.57;;;13.90;99.90;;;;;;5018684;28;20325;-83
2023/06/27 01:37:08;;;;;;;8.00;2.60;;;13.90;99.90;;;;;;5022157;28;20224;-83
2023/06/27 01:39:43;;;;;;;9.27;2.90;;;13.80;99.90;;;;;;5021685;28;20232;-82
2023/06/27 01:42:15;;;;;;;9.53;2.23;;;13.80;99.90;;;;;;5019632;28;20231;-82
2023/06/27 01:44:46;;;;;;;6.40;2.30;;;13.80;99.90;;;;;;5019019;28;20238;-82
2023/06/27 01:47:14;;;;;;;7.57;2.53;;;13.80;99.90;;;;;;5018429;28;20247;-82
2023/06/27 01:49:41;;;;;;;8.77;2.60;;;13.80;99.90;;;;;;5017362;28;20693;-82
2023/06/27 01:52:12;;;;;;;5.77;2.13;;;13.70;99.90;;;;;;5021285;28;20228;-82
2023/06/27 01:54:41;;;;;;;8.77;2.63;;;13.70;99.90;;;;;;5015774;28;20255;-82
2023/06/27 01:57:08;;;;;;;7.70;2.30;;;13.70;99.90;;;;;;5020469;28;20235;-83
2023/06/27 01:59:36;;;;;;;6.93;2.50;;;13.70;99.90;;;;;;5019989;28;20223;-83
2023/06/27 02:02:03;;;;;;;9.63;3.00;;;13.70;99.90;;;;;;5019018;28;20278;-83
2023/06/27 02:04:30;;;;;;;6.83;2.60;;;13.70;99.90;;;;;;5021906;28;20249;-81
2023/06/27 02:06:57;;;;;;;8.70;2.77;;;13.60;99.90;;;;;;5016180;28;20213;-83
2023/06/27 02:09:24;;;;;;;11.07;3.13;;;13.60;99.90;;;;;;5021292;28;20833;-83
2023/06/27 02:11:52;;;;;;;7.50;2.50;;;13.60;99.90;;;;;;5016858;28;20232;-83
2023/06/27 02:14:19;;;;;;;6.30;2.27;;;13.60;99.90;;;;;;5021261;28;20230;-83
2023/06/27 02:16:46;;;;;;;11.60;3.57;;;13.60;99.90;;;;;;5022646;28;20282;-82
2023/06/27 02:19:14;;;;;;;10.67;3.00;;;13.60;99.90;;;;;;5024022;28;20247;-82
2023/06/27 02:21:41;;;;;;;9.63;2.40;;;13.60;99.90;;;;;;5019221;28;20235;-82
2023/06/27 02:24:08;;;;;;;11.63;3.13;;;13.60;99.90;;;;;;5015548;28;20309;-82
2023/06/27 02:26:35;;;;;;;5.70;2.57;;;13.60;99.90;;;;;;5020081;28;20255;-82
2023/06/27 02:29:04;;;;;;;10.57;2.50;;;13.60;99.90;;;;;;5017824;28;20260;-82
2023/06/27 02:31:31;;;;;;;8.37;2.83;;;13.60;99.90;;;;;;5023432;28;20259;-82
2023/06/27 02:33:58;;;;;;;9.07;2.93;;;13.60;99.90;;;;;;5022031;28;20281;-82
2023/06/27 02:36:27;;;;;;;10.33;3.13;;;13.60;99.90;;;;;;5021476;28;20283;-83
2023/06/27 02:38:56;;;;;;;8.40;2.77;;;13.60;99.90;;;;;;5023579;28;20238;-83
2023/06/27 02:41:23;;;;;;;10.23;2.70;;;13.60;99.90;;;;;;5014034;28;20226;-83
2023/06/27 02:43:50;;;;;;;11.10;3.13;;;13.60;99.90;;;;;;5018775;28;20216;-83
2023/06/27 02:46:19;;;;;;;8.03;2.97;;;13.60;99.90;;;;;;5016834;28;20226;-85
2023/06/27 02:48:46;;;;;;;7.70;2.80;;;13.60;99.90;;;;;;5019212;28;20238;-85
2023/06/27 02:51:13;;;;;;;10.40;2.47;;;13.70;99.90;;;;;;5011923;28;20307;-85
2023/06/27 02:53:40;;;;;;;10.33;3.00;;;13.70;99.90;;;;;;5018263;28;20267;-84
2023/06/27 02:56:07;;;;;;;9.33;2.77;;;13.70;99.90;;;;;;5019900;28;20248;-85
2023/06/27 02:58:36;;;;;;;5.97;2.00;;;13.80;99.90;;;;;;5014147;28;20235;-84
2023/06/27 03:01:06;;;;;;;8.80;2.50;;;13.80;99.90;;;;;;5018234;28;20269;-84
2023/06/27 03:03:37;;;;;;;4.53;2.23;;;13.80;99.90;;;;;;5018682;28;20324;-84
2023/06/27 03:06:08;;;;;;;9.90;2.90;;;13.90;99.90;;;;;;5013868;28;20241;-84
2023/06/27 03:08:37;;;;;;;12.03;2.77;;;13.90;99.90;;;;;;5017241;28;20259;-84
2023/06/27 03:11:04;;;;;;;8.60;2.77;;;14.00;99.90;;;;;;5020512;28;20216;-83
2023/06/27 03:13:31;;;;;;;6.57;2.40;;;14.00;99.90;;;;;;5013569;28;20315;-84
2023/06/27 03:16:00;;;;;;;8.53;2.80;;;13.90;99.90;;;;;;5014517;28;20217;-83
2023/06/27 03:18:28;;;;;;;8.87;2.53;;;13.90;99.90;;;;;;5019242;28;20713;-85
2023/06/27 03:20:57;;;;;;;7.37;2.97;;;13.90;99.90;;;;;;5023990;28;20700;-84
2023/06/27 03:23:23;;;;;;;9.57;3.10;;;13.90;99.90;;;;;;5021544;28;20761;-83
2023/06/27 03:25:50;;;;;;;8.27;2.50;;;13.80;99.90;;;;;;5016071;28;20222;-84
2023/06/27 03:28:17;;;;;;;8.20;3.40;;;13.80;99.90;;;;;;5014226;28;20225;-83
2023/06/27 03:30:51;;;;;;;6.40;2.53;;;13.80;99.90;;;;;;5019732;28;20229;-83
2023/06/27 03:33:18;;;;;;;12.80;3.57;;;13.70;99.90;;;;;;5021760;28;20245;-84
2023/06/27 03:35:47;;;;;;;14.77;3.20;;;13.70;99.90;;;;;;5021745;28;20250;-84
2023/06/27 03:38:15;;;;;;;6.67;2.90;;;13.70;99.90;;;;;;5021400;28;20327;-82
2023/06/27 03:40:43;;;;;;;7.47;3.17;;;13.70;99.90;;;;;;5021183;28;20763;-83
2023/06/27 03:43:11;;;;;;;8.50;2.93;;;13.70;99.90;;;;;;5022027;28;20220;-83
2023/06/27 03:45:38;;;;;;;7.40;2.77;;;13.70;99.90;;;;;;5019439;28;20230;-83
2023/06/27 03:48:06;;;;;;;3.70;2.40;;;13.70;99.90;;;;;;5019447;28;20221;-83
2023/06/27 03:50:33;;;;;;;5.10;2.37;;;13.60;99.90;;;;;;5022969;28;20308;-84
2023/06/27 03:53:01;;;;;;;5.50;2.30;;;13.60;99.90;;;;;;5022387;28;20243;-83
2023/06/27 03:55:29;;;;;;;7.80;2.73;;;13.60;99.90;;;;;;5022912;28;20301;-83
2023/06/27 03:57:56;;;;;;;6.73;2.87;;;13.60;99.90;;;;;;5019587;28;20240;-84
2023/06/27 04:00:23;;;;;;;9.77;2.57;;;13.60;99.90;;;;;;5022834;28;20228;-84
2023/06/27 04:02:51;;;;;;;6.43;2.47;;;13.60;99.90;;;;;;5024021;28;20665;-83
2023/06/27 04:05:18;;;;;;;8.70;2.70;;;13.60;99.90;;;;;;5026646;28;20230;-84
2023/06/27 04:07:45;;;;;;;7.43;2.63;;;13.60;99.90;;;;;;5025657;28;20889;-83
2023/06/27 04:10:12;;;;;;;8.47;2.77;;;13.60;99.90;;;;;;5025141;28;20273;-83
2023/06/27 04:12:40;;;;;;;6.80;2.80;;;13.60;99.90;;;;;;5027347;28;20232;-84
2023/06/27 04:15:09;;;;;;;6.60;2.50;;;13.60;99.90;;;;;;5013374;28;20233;-84
2023/06/27 04:17:35;;;;;;;6.13;2.23;;;13.60;99.90;;;;;;5034297;28;20281;-83
2023/06/27 04:20:02;;;;;;;7.70;2.43;;;13.60;99.90;;;;;;5017288;28;20212;-84
2023/06/27 04:22:29;;;;;;;7.80;2.43;;;13.70;99.90;;;;;;5021990;28;20223;-83
2023/06/27 04:24:56;;;;;;;5.40;2.50;;;13.70;99.90;;;;;;5023975;28;20230;-84
2023/06/27 04:27:23;;;;;;;6.77;2.90;;;13.70;99.90;;;;;;5024756;28;20227;-83
2023/06/27 04:29:51;;;;;;;7.07;2.20;;;13.70;99.90;;;;;;5023478;28;20219;-82
2023/06/27 04:32:17;;;;;;;5.33;2.13;;;13.70;99.90;;;;;;5023253;28;20231;-83
2023/06/27 04:34:44;;;;;;;7.27;2.40;;;13.80;99.90;;;;;;5021679;28;20236;-82
2023/06/27 04:37:11;;;;;;;5.63;2.23;;;13.80;99.90;;;;;;5025416;28;20332;-81
2023/06/27 04:39:38;;;;;;;5.17;1.93;;;13.80;99.90;;;;;;5022277;28;20236;-81
2023/06/27 04:42:05;;;;;;;5.33;2.33;;;13.80;99.90;;;;;;5020082;28;20797;-83
2023/06/27 04:44:31;;;;;;;5.80;2.37;;;13.80;99.90;;;;;;5021429;28;20224;-83
2023/06/27 04:46:59;;;;;;;7.53;2.17;;;13.80;99.90;;;;;;5021159;28;20229;-82
2023/06/27 04:49:26;;;;;;;4.43;2.23;;;13.80;99.90;;;;;;5023394;28;20319;-82
2023/06/27 04:51:53;;;;;;;5.83;2.43;;;13.70;99.90;;;;;;5018158;28;20254;-82
2023/06/27 04:54:20;;;;;;;6.70;2.50;;;13.80;99.90;;;;;;5023454;28;20777;-82
2023/06/27 04:56:47;;;;;;;7.53;2.43;;;13.90;99.90;;;;;;5024718;28;20225;-82
2023/06/27 04:59:13;;;;;;;5.87;2.30;;;13.90;99.90;;;;;;5023254;28;20968;-82
2023/06/27 05:01:40;;;;;;;3.67;1.80;;;13.90;99.90;;;;;;5017417;28;20665;-81
2023/06/27 05:04:08;;;;;;;7.20;2.57;;;14.00;99.90;;;;;;5021782;28;20323;-81
2023/06/27 05:06:35;;;;;;;6.07;2.60;;;14.00;99.90;;;;;;5025769;28;20234;-82
2023/06/27 05:09:03;;;;;;;7.03;2.23;;;14.00;99.90;;;;;;5018727;28;20233;-82
2023/06/27 05:11:31;;;;;;;3.47;1.73;;;14.10;99.90;;;;;;5023982;28;20240;-82
2023/06/27 05:13:57;;;;;;;2.03;1.20;;;14.10;99.90;;;;;;5020126;28;20235;-81
2023/06/27 05:16:24;;;;;;;4.20;1.20;;;14.00;99.90;;;;;;5023996;28;20245;-81
2023/06/27 05:18:51;;;;;;;7.67;1.50;;;13.90;99.90;;;;;;5021801;28;20283;-81
2023/06/27 05:21:20;;;;;;;3.70;1.70;;;13.70;99.90;;;;;;5025020;28;20248;-82
2023/06/27 05:23:47;;;;;;;4.53;1.47;;;13.60;99.90;;;;;;5021264;28;20222;-81
2023/06/27 05:26:14;;;;;;;4.37;1.80;;;13.50;99.90;;;;;;5024666;28;20219;-81
2023/06/27 05:28:41;;;;;;;3.10;1.57;;;13.40;99.90;;;;;;5022846;28;20247;-81
2023/06/27 05:31:07;;;;;;;4.47;1.57;;;13.30;99.90;;;;;;5020306;28;20215;-82
2023/06/27 05:33:34;;;;;;;2.83;1.50;;;13.30;99.90;;;;;;5020715;28;20265;-82
2023/06/27 05:36:01;;;;;;;3.57;1.60;;;13.30;99.90;;;;;;5022363;28;20257;-83
2023/06/27 05:38:29;;;;;;;3.87;1.27;;;13.20;99.90;;;;;;5020037;28;20323;-82
2023/06/27 05:40:56;;;;;;;1.60;1.40;;;13.30;99.90;;;;;;5025027;28;20221;-83
2023/06/27 05:43:23;;;;;;;3.53;2.00;;;13.20;99.90;;;;;;5023285;28;20368;-83
2023/06/27 05:45:50;;;;;;;3.10;1.70;;;13.30;99.90;;;;;;5019568;28;20238;-83
2023/06/27 05:48:16;;;;;;;6.80;1.93;;;13.30;99.90;;;;;;5023459;28;20694;-82
2023/06/27 05:50:43;;;;;;;4.23;2.03;;;13.30;99.90;;;;;;5020392;28;20258;-82
2023/06/27 05:53:10;;;;;;;4.17;2.30;;;13.40;99.90;;;;;;5041269;23;20226;-80
2023/06/27 05:55:38;;;;;;;2.33;2.07;;;13.40;99.90;;;;;;5011554;28;20228;-80
2023/06/27 05:58:04;;;;;;;5.83;2.67;;;13.50;99.90;;;;;;5023983;28;20705;-79
2023/06/27 06:00:31;;;;;;;7.63;2.90;;;13.60;99.90;;;;;;5028822;28;20242;-80
2023/06/27 06:02:58;;;;;;;7.30;3.43;;;13.70;99.90;;;;;;5000692;28;20255;-80
2023/06/27 06:05:24;;;;;;;5.43;3.20;;;13.80;99.90;;;;;;5009595;28;20235;-80
2023/06/27 06:07:51;;;;;;;8.50;3.37;;;13.90;99.90;;;;;;5008085;28;20229;-81
2023/06/27 06:10:18;;;;;;;7.87;3.63;;;14.00;99.90;;;;;;5016299;28;20227;-80
2023/06/27 06:12:46;;;;;;;8.73;3.80;;;14.10;99.90;;;;;;4991924;28;20331;-80
2023/06/27 06:15:13;;;;;;;4.93;2.77;;;14.20;99.90;;;;;;5003113;28;20227;-80
2023/06/27 06:17:40;;;;;;;6.43;2.90;;;14.30;99.90;;;;;;5005212;28;20233;-78
2023/06/27 06:20:09;;;;;;;8.10;3.27;;;14.30;99.90;;;;;;5007917;28;20228;-80
2023/06/27 06:22:36;;;;;;;6.20;2.60;;;14.40;99.90;;;;;;5005033;28;20338;-80
2023/06/27 06:25:03;;;;;;;7.47;2.67;;;14.50;99.90;;;;;;5004409;28;20300;-82
2023/06/27 06:27:30;;;;;;;5.33;2.40;;;14.60;99.90;;;;;;5007176;28;20232;-79
2023/06/27 06:29:58;;;;;;;6.03;2.30;;;14.70;99.90;;;;;;5009737;28;20731;-80
2023/06/27 06:32:25;;;;;;;3.87;1.70;;;14.90;99.90;;;;;;5007179;28;20880;-80
2023/06/27 06:34:51;;;;;;;3.47;2.07;;;15.00;99.90;;;;;;5007849;28;20239;-81
2023/06/27 06:37:18;;;;;;;7.43;2.40;;;15.10;99.90;;;;;;5003623;28;20229;-79
2023/06/27 06:39:45;;;;;;;5.63;2.67;;;15.20;99.90;;;;;;5015467;28;20237;-81
2023/06/27 06:42:11;;;;;;;5.33;2.10;;;15.30;99.90;;;;;;5001883;28;20631;-79
2023/06/27 06:44:38;;;;;;;3.63;2.27;;;15.30;99.90;;;;;;4987872;28;20221;-80
2023/06/27 06:47:07;;;;;;;3.23;1.97;;;15.40;99.90;;;;;;4984607;28;20218;-79
2023/06/27 06:49:34;;;;;;;3.77;1.80;;;15.50;99.90;;;;;;5002357;28;20287;-78
2023/06/27 06:52:00;;;;;;;4.63;2.17;;;15.70;99.90;;;;;;4998876;28;20221;-79
2023/06/27 06:54:27;;;;;;;4.27;1.97;;;15.80;99.90;;;;;;5008842;28;20232;-81
2023/06/27 06:56:53;;;;;;;7.83;2.23;;;16.00;99.90;;;;;;5005184;28;20228;-79
2023/06/27 06:59:20;;;;;;;7.07;2.15;;;16.30;99.90;;;;;;4997661;28;20707;-79
2023/06/27 07:01:47;;;;;;;9.85;2.15;;;16.60;99.90;;;;;;5011728;28;20220;-80
2023/06/27 07:04:15;;;;;;;4.95;1.77;;;17.00;99.90;;;;;;5010020;28;20229;-79
2023/06/27 07:06:41;;;;;;;8.00;2.38;;;17.60;99.90;;;;;;5010456;28;20749;-81
2023/06/27 07:09:08;;;;;;;3.83;1.77;;;18.10;99.90;;;;;;5004215;28;20225;-80
2023/06/27 07:11:35;;;;;;;3.97;1.70;;;18.60;99.90;;;;;;5007789;28;20229;-79
2023/06/27 07:14:01;;;;;;;5.40;1.48;;;19.20;99.90;;;;;;5010220;28;20240;-82
2023/06/27 07:16:28;;;;;;;5.22;1.83;;;19.70;99.90;;;;;;4992096;28;21087;-79
2023/06/27 07:18:55;;;;;;;3.75;1.50;;;20.20;99.90;;;;;;5004663;28;20225;-79
2023/06/27 07:21:23;;;;;;;8.48;1.98;;;20.60;99.90;;;;;;5004513;28;20923;-79
2023/06/27 07:23:51;;;;;;;2.40;1.55;;;20.90;99.90;;;;;;5006005;28;20226;-79
2023/06/27 07:26:17;;;;;;;5.20;1.77;;;21.00;99.90;;;;;;4991459;28;20317;-79
2023/06/27 07:28:44;;;;;;;5.80;1.95;;;20.80;99.90;;;;;;5004480;28;20600;-80
2023/06/27 07:31:11;;;;;;;3.88;2.10;;;20.60;99.90;;;;;;5003270;28;20218;-79
2023/06/27 07:33:37;;;;;;;4.75;1.50;;;20.30;99.90;;;;;;4993559;28;20232;-79
2023/06/27 07:36:04;;;;;;;2.72;1.60;;;19.90;99.90;;;;;;5006227;28;20225;-79
2023/06/27 07:38:32;;;;;;;3.30;1.65;;;19.60;99.90;;;;;;5008433;28;20313;-79
2023/06/27 07:40:59;;;;;;;4.53;1.75;;;19.20;99.90;;;;;;5004533;28;20230;-79
2023/06/27 07:43:26;;;;;;;6.97;1.60;;;18.80;99.90;;;;;;4996616;28;20769;-80
2023/06/27 07:45:52;;;;;;;3.63;1.50;;;18.40;99.90;;;;;;5005409;28;20251;-79
2023/06/27 07:48:19;;;;;;;3.88;1.50;;;18.20;99.90;;;;;;5001456;28;20881;-80
2023/06/27 07:50:45;;;;;;;7.68;2.20;;;18.10;99.90;;;;;;5017740;28;20220;-78
2023/06/27 07:53:12;;;;;;;5.38;1.50;;;18.10;99.90;;;;;;5002660;28;20587;-79
2023/06/27 07:55:40;;;;;;;4.22;1.95;;;18.10;99.90;;;;;;5004732;28;20235;-79
2023/06/27 07:58:07;;;;;;;3.63;1.15;;;18.00;99.90;;;;;;5001260;28;20217;-80
2023/06/27 08:00:34;;;;;;;5.47;1.60;;;18.00;99.90;;;;;;4994924;28;20272;-79
2023/06/27 08:03:02;;;;;;;20.50;2.85;;;17.80;99.90;;;;;;5023518;28;20229;-80
2023/06/27 08:05:31;;;;;;;11.27;2.40;;;17.60;99.90;;;;;;4987897;28;20222;-83
2023/06/27 08:07:58;;;;;;;3.47;1.60;;;17.30;99.90;;;;;;5009953;28;20739;-80
2023/06/27 08:10:25;;;;;;;2.77;1.30;;;17.10;99.90;;;;;;5002475;28;20221;-79
2023/06/27 08:12:53;;;;;;;1082.03;94.87;;;16.80;99.90;;;;;;5004976;28;20314;-81
2023/06/27 08:15:21;;;;;;;3.30;1.50;;;16.50;99.90;;;;;;5004064;28;20232;-79
2023/06/27 08:17:48;;;;;;;190.90;19.63;;;16.50;99.90;;;;;;5006726;28;20222;-80
2023/06/27 08:20:15;;;;;;;138.60;13.10;;;16.60;99.90;;;;;;5005435;28;20699;-79
2023/06/27 08:22:42;;;;;;;331.77;25.83;;;16.90;99.90;;;;;;5006092;28;20765;-79
2023/06/27 08:25:09;;;;;;;2.50;1.50;;;17.20;99.90;;;;;;5012785;28;20228;-78
2023/06/27 08:27:36;;;;;;;3.30;1.67;;;17.70;99.90;;;;;;5005544;28;20225;-79
2023/06/27 08:30:05;;;;;;;15.00;2.20;;;18.10;99.90;;;;;;5005531;28;20593;-78
2023/06/27 08:32:31;;;;;;;21.42;3.42;;;18.50;99.90;;;;;;5005491;28;20221;-80
2023/06/27 08:34:58;;;;;;;8.77;2.10;;;18.90;99.90;;;;;;5001567;28;20240;-79
2023/06/27 08:37:25;;;;;;;3.80;1.73;;;19.40;99.90;;;;;;5009533;28;20224;-78
2023/06/27 08:39:52;;;;;;;8.75;2.10;;;19.90;99.90;;;;;;5009369;28;20235;-80
2023/06/27 08:42:19;;;;;;;4.63;1.95;;;20.50;99.90;;;;;;4991147;28;21945;-80
2023/06/27 08:44:46;;;;;;;3.67;1.63;;;21.00;99.90;;;;;;5006099;28;20239;-79
2023/06/27 08:47:19;;;;;;;4.05;1.25;;;21.50;99.90;;;;;;4998595;28;20222;-79
2023/06/27 08:49:50;;;;;;;3.90;1.45;;;21.70;99.90;;;;;;5001607;28;20272;-81
2023/06/27 08:52:20;;;;;;;4.78;1.80;;;21.60;99.90;;;;;;5005281;28;20251;-79
2023/06/27 08:54:54;;;;;;;9.70;2.25;;;21.50;99.90;;;;;;5007500;28;20798;-80
2023/06/27 08:57:25;;;;;;;14.73;3.20;;;21.30;99.90;;;;;;4989403;28;20334;-81
2023/06/27 08:59:54;;;;;;;3.95;1.58;;;20.90;99.90;;;;;;5002158;28;20225;-80
2023/06/27 09:02:23;;;;;;;5.38;1.70;;;20.50;99.90;;;;;;4995819;28;20217;-79
2023/06/27 09:04:51;;;;;;;3.30;1.67;;;20.00;99.90;;;;;;5008420;28;20247;-78
2023/06/27 09:07:17;;;;;;;3.10;1.40;;;19.50;99.90;;;;;;4989009;28;20232;-81
2023/06/27 09:09:45;;;;;;;4.78;1.30;;;19.00;99.90;;;;;;5008163;28;20229;-80
2023/06/27 09:12:12;;;;;;;3.13;1.63;;;18.50;99.90;;;;;;4988790;28;20667;-79
2023/06/27 09:14:39;;;;;;;3.47;1.70;;;18.10;99.90;;;;;;4998867;28;20241;-80
2023/06/27 09:17:05;;;;;;;5.93;2.10;;;17.80;99.90;;;;;;4998501;28;20236;-79
2023/06/27 09:19:36;;;;;;;3.97;1.60;;;17.60;99.90;;;;;;5005278;28;20232;-79
2023/06/27 09:22:03;;;;;;;5.00;1.90;;;17.30;99.90;;;;;;5005700;28;20668;-80
2023/06/27 09:24:31;;;;;;;4.90;1.70;;;17.10;99.90;;;;;;5002591;28;20237;-79
2023/06/27 09:26:58;;;;;;;6.33;2.00;;;17.00;99.90;;;;;;5003086;28;20239;-79
2023/06/27 09:29:32;;;;;;;4.93;2.10;;;16.90;99.90;;;;;;5004744;28;20236;-79
2023/06/27 09:32:06;;;;;;;5.60;2.43;;;16.80;99.90;;;;;;5005409;28;20293;-79
2023/06/27 09:34:35;;;;;;;138.67;13.60;;;16.80;99.90;;;;;;5001744;28;20236;-79
2023/06/27 09:37:03;;;;;;;4.10;2.20;;;16.80;99.90;;;;;;5000523;28;20240;-80
2023/06/27 09:39:29;;;;;;;5.72;2.40;;;17.00;99.90;;;;;;4992100;28;20229;-79
2023/06/27 09:41:56;;;;;;;5.35;2.13;;;17.20;99.90;;;;;;5002431;28;20747;-80
2023/06/27 09:44:25;;;;;;;5.13;1.88;;;17.50;99.90;;;;;;5007056;28;20226;-79
2023/06/27 09:46:52;;;;;;;13.57;2.80;;;17.70;99.90;;;;;;5003867;28;20264;-79
2023/06/27 09:49:20;;;;;;;5.60;2.20;;;18.10;99.90;;;;;;5001891;28;20210;-78
2023/06/27 09:51:49;;;;;;;6.13;1.90;;;18.40;99.90;;;;;;4988443;28;20685;-78
2023/06/27 09:54:19;;;;;;;4.97;1.90;;;18.90;99.90;;;;;;4988263;28;20225;-79
2023/06/27 09:56:49;;;;;;;4.93;1.70;;;19.50;99.90;;;;;;5003527;28;20229;-80
2023/06/27 09:59:17;;;;;;;2.88;1.33;;;20.00;99.90;;;;;;5000046;28;20217;-79
2023/06/27 10:01:44;;;;;;;5.80;1.75;;;20.40;99.90;;;;;;5007257;28;20931;-79
2023/06/27 10:04:11;;;;;;;2.80;1.42;;;20.80;99.90;;;;;;5001321;28;20231;-79
2023/06/27 10:06:38;;;;;;;6.10;1.40;;;21.00;99.90;;;;;;5005928;28;20229;-80
2023/06/27 10:09:06;;;;;;;2.92;1.20;;;21.30;99.90;;;;;;5013655;28;20225;-79
2023/06/27 10:11:35;;;;;;;6.53;1.42;;;21.60;99.90;;;;;;5008937;28;20367;-80
2023/06/27 10:14:03;;;;;;;3.53;1.33;;;21.80;99.90;;;;;;4990342;28;20260;-79
2023/06/27 10:16:31;;;;;;;3.45;1.15;;;22.00;99.90;;;;;;5005606;28;20233;-81
2023/06/27 10:18:57;;;;;;;2.85;1.02;;;22.20;99.90;;;;;;5005732;28;20228;-79
2023/06/27 10:21:26;;;;;;;2.03;1.05;;;22.40;99.90;;;;;;4988966;28;20241;-80
2023/06/27 10:23:56;;;;;;;1.80;0.88;;;22.60;99.90;;;;;;5014933;28;20244;-80
2023/06/27 10:26:26;;;;;;;2.60;1.00;;;22.80;99.90;;;;;;4995027;28;20214;-79
2023/06/27 10:28:53;;;;;;;3.72;1.27;;;23.00;99.90;;;;;;5008787;28;20236;-80
2023/06/27 10:31:39;;;;;;;2.67;1.10;;;23.10;99.90;;;;;;5010052;28;20232;-79
2023/06/27 10:34:06;;;;;;;3.72;1.23;;;23.30;99.90;;;;;;5015907;28;20220;-79
2023/06/27 10:36:51;;;;;;;5.65;1.48;;;23.40;99.90;;;;;;5012852;28;20229;-79
2023/06/27 10:39:29;;;;;;;3.35;1.00;;;23.60;99.90;;;;;;5021166;28;20216;-80
2023/06/27 10:42:15;;;;;;;3.15;0.90;;;23.80;99.90;;;;;;5018563;28;20238;-79
2023/06/27 10:45:06;;;;;;;4.25;1.13;;;24.00;99.90;;;;;;5015400;28;20241;-80
2023/06/27 10:47:34;;;;;;;2.20;0.85;;;24.10;99.00;;;;;;5019849;28;20237;-81
2023/06/27 10:50:05;;;;;;;2.60;1.10;;;24.20;99.40;;;;;;5012328;28;20649;-80
2023/06/27 10:52:32;;;;;;;2.53;1.15;;;24.20;98.50;;;;;;5020440;28;20251;-80
2023/06/27 10:55:23;;;;;;;4.65;1.42;;;24.30;98.50;;;;;;5008845;28;20229;-79
2023/06/27 10:58:02;;;;;;;3.90;1.10;;;24.40;96.40;;;;;;5009496;28;20311;-79
2023/06/27 11:00:32;;;;;;;4.30;1.00;;;24.50;96.20;;;;;;5006563;28;20730;-78
2023/06/27 11:03:02;;;;;;;3.70;1.20;;;24.60;96.90;;;;;;5006339;28;20237;-79
2023/06/27 11:05:49;;;;;;;3.05;1.00;;;24.70;96.70;;;;;;5009752;28;20275;-78
2023/06/27 11:08:17;;;;;;;1.55;0.80;;;24.90;95.60;;;;;;5012951;28;20493;-79
2023/06/27 11:10:52;;;;;;;4.20;1.08;;;25.20;95.40;;;;;;5017500;28;20444;-78
2023/06/27 11:13:25;;;;;;;4.78;0.95;;;25.40;93.80;;;;;;5020136;28;20212;-80
2023/06/27 11:15:53;;;;;;;4.78;1.10;;;25.70;93.20;;;;;;5014069;28;20236;-78
2023/06/27 11:18:22;;;;;;;4.90;1.10;;;25.90;93.60;;;;;;5010661;28;20584;-78
2023/06/27 11:20:49;;;;;;;3.83;1.23;;;26.00;92.40;;;;;;5014314;28;20228;-79
2023/06/27 11:23:17;;;;;;;1.65;0.90;;;25.90;91.20;;;;;;5017221;28;20639;-78
2023/06/27 11:25:45;;;;;;;6.88;1.40;;;25.80;91.60;;;;;;5014855;28;20464;-78
2023/06/27 11:28:12;;;;;;;2.53;0.82;;;25.70;90.60;;;;;;5013534;28;20717;-79
2023/06/27 11:30:40;;;;;;;4.00;0.95;;;25.70;90.60;;;;;;5011771;28;20230;-80
2023/06/27 11:33:08;;;;;;;5.05;1.10;;;25.60;89.80;;;;;;5007792;28;20727;-78
2023/06/27 11:35:35;;;;;;;3.83;0.90;;;25.50;90.30;;;;;;5008181;28;20309;-79
2023/06/27 11:38:06;;;;;;;2.05;1.20;;;25.30;90.10;;;;;;4994386;28;20654;-79
2023/06/27 11:40:33;;;;;;;2.17;1.10;;;25.10;90.80;;;;;;5008237;28;20236;-79
2023/06/27 11:43:02;;;;;;;2.10;1.00;;;25.00;91.60;;;;;;5009618;28;20406;-78
2023/06/27 11:45:29;;;;;;;4.82;1.13;;;25.00;91.00;;;;;;5011893;28;20334;-79
2023/06/27 11:47:57;;;;;;;2.25;0.98;;;25.10;91.20;;;;;;4997685;28;20271;-79
2023/06/27 11:50:24;;;;;;;2.55;0.85;;;25.30;90.30;;;;;;5007570;28;20235;-78
2023/06/27 11:52:52;;;;;;;4.32;1.13;;;25.60;90.40;;;;;;5010720;28;20230;-79
2023/06/27 11:55:19;;;;;;;2.47;1.00;;;25.80;90.70;;;;;;5040415;23;20604;-82
2023/06/27 11:57:46;;;;;;;2.42;1.20;;;26.00;89.40;;;;;;5000895;28;20908;-81
2023/06/27 12:00:15;;;;;;;3.70;1.40;;;26.10;86.10;;;;;;5024465;28;20237;-83
2023/06/27 12:02:41;;;;;;;2.58;1.13;;;26.10;85.30;;;;;;5037425;28;20235;-80
2023/06/27 12:05:15;;;;;;;3.42;0.85;;;26.20;86.10;;;;;;5007845;28;20235;-79
2023/06/27 12:07:42;;;;;;;4.50;1.00;;;26.20;83.70;;;;;;5007100;28;20314;-81
2023/06/27 12:10:09;;;;;;;2.97;1.05;;;26.20;83.50;;;;;;5013077;28;20311;-84
2023/06/27 12:12:39;;;;;;;3.05;1.00;;;26.20;84.80;;;;;;5009603;28;20314;-82
2023/06/27 12:15:13;;;;;;;3.53;1.27;;;26.20;83.20;;;;;;5005743;28;20240;-80
2023/06/27 12:17:54;;;;;;;5.88;1.55;;;26.20;82.10;;;;;;5022654;28;20229;-79
2023/06/27 12:20:22;;;;;;;3.47;0.93;;;26.20;83.00;;;;;;5026047;28;20220;-79
2023/06/27 12:22:49;;;;;;;3.80;0.80;;;26.20;82.50;;;;;;5018614;28;20630;-78
2023/06/27 12:25:15;;;;;;;5.22;1.20;;;26.20;85.10;;;;;;5006854;28;20229;-79
2023/06/27 12:27:42;;;;;;;4.38;1.30;;;26.30;85.90;;;;;;5027402;28;20255;-78
2023/06/27 12:30:11;;;;;;;4.75;1.15;;;26.30;84.50;;;;;;5022249;28;20781;-79
2023/06/27 12:32:39;;;;;;;2.78;1.20;;;26.30;83.60;;;;;;5021601;28;20605;-78
2023/06/27 12:35:06;;;;;;;2.60;0.80;;;26.10;77.10;;;;;;5017999;28;20617;-80
2023/06/27 12:37:34;;;;;;;4.47;0.98;;;25.70;77.00;;;;;;5024282;28;20243;-79
2023/06/27 12:40:02;;;;;;;4.85;0.80;;;25.30;82.20;;;;;;5018204;28;20228;-79
2023/06/27 12:42:28;;;;;;;1.48;0.80;;;24.80;82.60;;;;;;5021515;28;20282;-79
2023/06/27 12:44:56;;;;;;;2.28;0.80;;;24.20;83.80;;;;;;5025523;28;20577;-77
2023/06/27 12:47:22;;;;;;;1.55;0.77;;;23.50;88.20;;;;;;5018178;28;20220;-79
2023/06/27 12:49:49;;;;;;;3.40;0.88;;;22.90;90.70;;;;;;5025391;28;20237;-78